createdAt,value
2018-12-14T00:00:59.121Z,15.50
2018-12-14T00:02:05.250Z,12.00
2018-12-14T00:03:08.678Z,12.00
2018-12-14T00:04:13.247Z,10.50
2018-12-14T00:05:16.113Z,11.00
2018-12-14T00:06:18.888Z,9.00
2018-12-14T00:07:22.140Z,10.00
2018-12-14T00:08:25.103Z,10.00
2018-12-14T00:09:28.901Z,10.00
2018-12-14T00:10:31.675Z,12.00
2018-12-14T00:11:34.443Z,12.00
2018-12-14T00:12:38.034Z,10.00
2018-12-14T00:13:41.089Z,12.00
2018-12-14T00:14:43.922Z,10.00
2018-12-14T00:15:46.702Z,11.00
2018-12-14T00:16:49.501Z,11.50
2018-12-14T00:17:52.274Z,10.00
2018-12-14T00:18:56.067Z,10.00
2018-12-14T00:19:59.156Z,14.00
2018-12-14T00:21:01.915Z,10.50
2018-12-14T00:22:04.728Z,10.00
2018-12-14T00:23:07.577Z,10.50
2018-12-14T00:24:10.360Z,8.00
2018-12-14T00:25:13.184Z,12.00
2018-12-14T00:26:16.291Z,10.00
2018-12-14T00:27:19.210Z,8.50
2018-12-14T00:28:23.712Z,13.50
2018-12-14T00:29:26.792Z,9.50
2018-12-14T00:30:29.578Z,10.00
2018-12-14T00:31:32.642Z,9.00
2018-12-14T00:32:35.440Z,10.00
2018-12-14T00:33:38.295Z,10.50
2018-12-14T00:34:41.082Z,12.00
2018-12-14T00:35:44.057Z,13.00
2018-12-14T00:36:46.818Z,8.50
2018-12-14T00:37:49.918Z,10.00
2018-12-14T00:38:52.822Z,11.50
2018-12-14T00:39:57.537Z,8.00
2018-12-14T00:41:00.318Z,10.00
2018-12-14T00:42:03.099Z,10.00
2018-12-14T00:43:05.906Z,10.00
2018-12-14T00:44:08.672Z,8.50
2018-12-14T00:45:11.478Z,8.50
2018-12-14T00:46:14.265Z,10.00
2018-12-14T00:47:17.089Z,10.00
2018-12-14T00:48:19.865Z,10.50
2018-12-14T00:49:22.637Z,9.50
2018-12-14T00:50:27.304Z,8.00
2018-12-14T00:51:30.134Z,11.50
2018-12-14T00:52:33.909Z,8.00
2018-12-14T00:53:37.759Z,6.00
2018-12-14T00:54:40.501Z,8.00
2018-12-14T00:55:43.692Z,10.00
2018-12-14T00:56:46.741Z,8.00
2018-12-14T00:57:49.513Z,8.00
2018-12-14T00:58:52.945Z,12.00
2018-12-14T00:59:55.827Z,7.50
2018-12-14T01:00:59.037Z,9.00
2018-12-14T01:02:02.563Z,8.00
2018-12-14T01:03:05.793Z,9.50
2018-12-14T01:04:08.618Z,8.50
2018-12-14T01:05:12.486Z,10.50
2018-12-14T01:06:15.724Z,9.50
2018-12-14T01:07:19.628Z,10.00
2018-12-14T01:08:23.354Z,6.50
2018-12-14T01:09:26.562Z,10.00
2018-12-14T01:10:29.343Z,8.50
2018-12-14T01:11:32.368Z,8.00
2018-12-14T01:12:35.158Z,9.00
2018-12-14T01:13:38.088Z,9.00
2018-12-14T01:14:40.896Z,12.00
2018-12-14T01:15:44.005Z,8.50
2018-12-14T01:16:46.820Z,7.50
2018-12-14T01:17:49.627Z,9.00
2018-12-14T01:18:52.406Z,10.00
2018-12-14T01:19:55.211Z,9.50
2018-12-14T01:20:57.974Z,8.00
2018-12-14T01:22:01.079Z,9.50
2018-12-14T01:23:03.885Z,8.50
2018-12-14T01:24:06.775Z,9.50
2018-12-14T01:25:09.561Z,11.50
2018-12-14T01:26:13.975Z,6.50
2018-12-14T01:27:16.737Z,10.50
2018-12-14T01:28:19.834Z,10.00
2018-12-14T01:29:23.366Z,8.00
2018-12-14T01:30:26.136Z,9.00
2018-12-14T01:31:28.895Z,8.00
2018-12-14T01:32:31.662Z,9.00
2018-12-14T01:33:34.391Z,8.50
2018-12-14T01:34:37.482Z,10.00
2018-12-14T01:35:40.249Z,8.50
2018-12-14T01:36:43.032Z,9.00
2018-12-14T01:37:45.791Z,10.00
2018-12-14T01:38:48.608Z,8.50
2018-12-14T01:39:51.406Z,11.00
2018-12-14T01:40:55.583Z,8.00
2018-12-14T01:42:04.611Z,8.00
2018-12-14T01:43:03.846Z,8.00
2018-12-14T01:44:07.318Z,8.00
2018-12-14T01:45:10.018Z,11.00
2018-12-14T01:46:12.797Z,7.50
2018-12-14T01:47:15.963Z,8.50
2018-12-14T01:48:18.835Z,8.00
2018-12-14T01:49:22.406Z,10.00
2018-12-14T01:50:25.160Z,8.00
2018-12-14T01:51:27.922Z,9.00
2018-12-14T01:52:30.842Z,7.00
2018-12-14T01:53:33.916Z,6.50
2018-12-14T01:54:36.704Z,9.00
2018-12-14T01:55:39.517Z,6.00
2018-12-14T01:56:42.286Z,9.00
2018-12-14T01:57:45.039Z,7.50
2018-12-14T01:58:47.795Z,9.00
2018-12-14T01:59:51.368Z,6.00
2018-12-14T02:00:55.282Z,8.00
2018-12-14T02:02:00.066Z,8.00
2018-12-14T02:03:02.849Z,8.00
2018-12-14T02:04:05.617Z,10.00
2018-12-14T02:05:08.732Z,6.00
2018-12-14T02:06:11.498Z,6.00
2018-12-14T02:07:14.321Z,8.50
2018-12-14T02:08:17.134Z,7.50
2018-12-14T02:09:20.595Z,9.50
2018-12-14T02:10:23.354Z,7.50
2018-12-14T02:11:26.431Z,12.00
2018-12-14T02:12:29.250Z,7.00
2018-12-14T02:13:32.057Z,10.00
2018-12-14T02:14:34.840Z,8.50
2018-12-14T02:15:37.592Z,8.50
2018-12-14T02:16:40.432Z,10.00
2018-12-14T02:17:43.555Z,10.00
2018-12-14T02:18:46.331Z,8.00
2018-12-14T02:19:49.156Z,6.00
2018-12-14T02:20:51.934Z,9.50
2018-12-14T02:21:54.766Z,7.50
2018-12-14T02:22:57.516Z,8.50
2018-12-14T02:24:00.564Z,8.00
2018-12-14T02:25:03.346Z,8.00
2018-12-14T02:26:06.121Z,10.00
2018-12-14T02:27:08.902Z,9.00
2018-12-14T02:28:11.711Z,5.50
2018-12-14T02:29:14.424Z,6.00
2018-12-14T02:30:17.577Z,6.00
2018-12-14T02:31:20.320Z,8.00
2018-12-14T02:32:23.101Z,8.00
2018-12-14T02:33:26.790Z,8.00
2018-12-14T02:34:29.590Z,8.00
2018-12-14T02:35:32.355Z,10.50
2018-12-14T02:36:35.625Z,9.50
2018-12-14T02:37:38.446Z,12.00
2018-12-14T02:38:42.076Z,10.00
2018-12-14T02:39:44.862Z,8.00
2018-12-14T02:40:47.706Z,10.00
2018-12-14T02:41:50.482Z,8.00
2018-12-14T02:42:53.681Z,8.00
2018-12-14T02:43:56.441Z,6.50
2018-12-14T02:44:59.207Z,9.50
2018-12-14T02:46:02.011Z,10.50
2018-12-14T02:47:04.830Z,8.50
2018-12-14T02:48:07.639Z,6.50
2018-12-14T02:49:10.891Z,9.00
2018-12-14T02:50:13.666Z,8.50
2018-12-14T02:51:16.490Z,9.50
2018-12-14T02:52:19.274Z,8.00
2018-12-14T02:53:22.039Z,8.00
2018-12-14T02:54:24.803Z,12.00
2018-12-14T02:55:27.975Z,10.00
2018-12-14T02:56:30.740Z,10.00
2018-12-14T02:57:33.527Z,8.00
2018-12-14T02:58:36.306Z,10.50
2018-12-14T02:59:40.572Z,8.00
2018-12-14T03:00:43.316Z,8.00
2018-12-14T03:01:47.369Z,9.50
2018-12-14T03:02:50.576Z,8.00
2018-12-14T03:03:53.348Z,10.50
2018-12-14T03:04:56.107Z,9.50
2018-12-14T03:05:58.911Z,10.00
2018-12-14T03:07:01.726Z,9.50
2018-12-14T03:08:05.807Z,8.00
2018-12-14T03:09:08.617Z,7.50
2018-12-14T03:10:11.636Z,8.00
2018-12-14T03:11:14.437Z,9.00
2018-12-14T03:12:17.211Z,8.00
2018-12-14T03:13:20.011Z,10.00
2018-12-14T03:14:23.246Z,9.00
2018-12-14T03:15:25.996Z,8.50
2018-12-14T03:16:28.711Z,8.00
2018-12-14T03:17:31.541Z,10.00
2018-12-14T03:18:34.349Z,8.50
2018-12-14T03:19:37.098Z,11.50
2018-12-14T03:20:40.716Z,8.00
2018-12-14T03:21:46.685Z,10.50
2018-12-14T03:22:50.402Z,10.00
2018-12-14T03:23:53.233Z,8.50
2018-12-14T03:24:56.065Z,10.50
2018-12-14T03:25:59.020Z,10.00
2018-12-14T03:27:02.121Z,14.50
2018-12-14T03:28:04.947Z,12.50
2018-12-14T03:29:07.746Z,10.50
2018-12-14T03:30:10.522Z,8.00
2018-12-14T03:31:13.661Z,10.00
2018-12-14T03:32:16.603Z,11.50
2018-12-14T03:33:20.508Z,9.00
2018-12-14T03:34:23.519Z,8.00
2018-12-14T03:35:26.423Z,10.00
2018-12-14T03:36:31.414Z,10.00
2018-12-14T03:37:34.780Z,9.50
2018-12-14T03:38:38.475Z,10.00
2018-12-14T03:39:41.253Z,10.00
2018-12-14T03:40:48.709Z,9.50
2018-12-14T03:41:51.472Z,8.00
2018-12-14T03:42:54.259Z,9.00
2018-12-14T03:43:57.843Z,8.00
2018-12-14T03:45:00.948Z,10.00
2018-12-14T03:46:04.423Z,12.00
2018-12-14T03:47:08.301Z,12.50
2018-12-14T03:48:11.084Z,10.00
2018-12-14T03:49:13.838Z,9.00
2018-12-14T03:50:16.611Z,12.50
2018-12-14T03:51:23.652Z,12.50
2018-12-14T03:52:26.443Z,10.50
2018-12-14T03:53:29.216Z,12.00
2018-12-14T03:54:32.009Z,10.00
2018-12-14T03:55:34.785Z,11.50
2018-12-14T03:56:37.863Z,11.00
2018-12-14T03:57:40.989Z,12.00
2018-12-14T03:58:43.770Z,11.50
2018-12-14T03:59:46.584Z,12.50
2018-12-14T04:00:49.522Z,10.00
2018-12-14T04:01:52.256Z,12.00
2018-12-14T04:02:55.238Z,12.50
2018-12-14T04:03:58.341Z,14.00
2018-12-14T04:05:01.136Z,11.50
2018-12-14T04:06:03.886Z,11.50
2018-12-14T04:07:06.641Z,12.00
2018-12-14T04:08:09.440Z,9.00
2018-12-14T04:09:12.222Z,12.00
2018-12-14T04:10:15.331Z,10.00
2018-12-14T04:11:18.713Z,8.00
2018-12-14T04:12:22.921Z,10.50
2018-12-14T04:13:25.683Z,8.00
2018-12-14T04:14:28.472Z,10.50
2018-12-14T04:15:31.292Z,14.00
2018-12-14T04:16:34.401Z,12.00
2018-12-14T04:17:37.198Z,13.50
2018-12-14T04:18:39.961Z,10.50
2018-12-14T04:19:42.802Z,12.50
2018-12-14T04:20:45.578Z,8.50
2018-12-14T04:21:48.359Z,12.00
2018-12-14T04:22:51.457Z,12.00
2018-12-14T04:23:54.244Z,12.00
2018-12-14T04:24:57.037Z,13.50
2018-12-14T04:25:59.822Z,18.00
2018-12-14T04:27:02.634Z,13.00
2018-12-14T04:28:05.413Z,17.50
2018-12-14T04:29:09.118Z,14.50
2018-12-14T04:30:11.926Z,13.50
2018-12-14T04:31:14.738Z,15.00
2018-12-14T04:32:17.557Z,11.00
2018-12-14T04:33:20.336Z,15.50
2018-12-14T04:34:23.091Z,8.00
2018-12-14T04:35:26.159Z,12.00
2018-12-14T04:36:29.101Z,12.00
2018-12-14T04:37:31.935Z,12.00
2018-12-14T04:38:34.761Z,15.00
2018-12-14T04:39:37.559Z,12.00
2018-12-14T04:40:40.342Z,12.00
2018-12-14T04:41:43.429Z,13.50
2018-12-14T04:42:48.969Z,11.50
2018-12-14T04:43:52.789Z,15.50
2018-12-14T04:44:55.504Z,13.00
2018-12-14T04:45:58.302Z,13.00
2018-12-14T04:47:01.261Z,10.00
2018-12-14T04:48:04.337Z,12.00
2018-12-14T04:49:07.127Z,10.00
2018-12-14T04:50:10.558Z,12.00
2018-12-14T04:51:13.467Z,12.50
2018-12-14T04:52:16.267Z,14.00
2018-12-14T04:53:19.111Z,14.00
2018-12-14T04:54:22.277Z,14.00
2018-12-14T04:55:25.082Z,12.50
2018-12-14T04:56:27.869Z,12.00
2018-12-14T04:57:30.688Z,14.00
2018-12-14T04:58:33.494Z,17.50
2018-12-14T04:59:36.272Z,12.50
2018-12-14T05:00:39.360Z,12.50
2018-12-14T05:01:42.187Z,11.00
2018-12-14T05:02:44.987Z,9.50
2018-12-14T05:03:47.834Z,12.50
2018-12-14T05:04:50.628Z,13.00
2018-12-14T05:05:53.397Z,12.50
2018-12-14T05:06:56.448Z,16.50
2018-12-14T05:07:59.232Z,13.00
2018-12-14T05:09:02.078Z,14.00
2018-12-14T05:10:04.853Z,17.00
2018-12-14T05:11:07.699Z,12.50
2018-12-14T05:12:10.474Z,18.50
2018-12-14T05:13:13.908Z,13.00
2018-12-14T05:14:17.218Z,12.00
2018-12-14T05:15:20.139Z,14.50
2018-12-14T05:16:22.918Z,12.00
2018-12-14T05:17:25.763Z,14.00
2018-12-14T05:18:30.575Z,15.00
2018-12-14T05:19:33.747Z,12.00
2018-12-14T05:20:36.545Z,11.50
2018-12-14T05:21:39.383Z,15.50
2018-12-14T05:22:42.149Z,18.00
2018-12-14T05:23:44.900Z,12.00
2018-12-14T05:24:47.664Z,12.00
2018-12-14T05:25:50.742Z,14.50
2018-12-14T05:26:54.368Z,14.00
2018-12-14T05:27:57.177Z,16.00
2018-12-14T05:29:00.017Z,15.00
2018-12-14T05:30:02.953Z,14.50
2018-12-14T05:31:05.735Z,16.00
2018-12-14T05:32:08.828Z,13.50
2018-12-14T05:33:11.593Z,13.50
2018-12-14T05:34:14.417Z,16.00
2018-12-14T05:35:17.252Z,13.50
2018-12-14T05:36:20.101Z,16.00
2018-12-14T05:37:23.051Z,16.00
2018-12-14T05:38:26.267Z,16.00
2018-12-14T05:39:29.101Z,14.00
2018-12-14T05:40:31.924Z,15.50
2018-12-14T05:41:34.838Z,13.00
2018-12-14T05:42:37.700Z,13.50
2018-12-14T05:43:40.542Z,15.50
2018-12-14T05:44:43.605Z,15.50
2018-12-14T05:45:46.436Z,15.50
2018-12-14T05:46:49.247Z,15.50
2018-12-14T05:47:52.037Z,12.00
2018-12-14T05:48:54.863Z,15.00
2018-12-14T05:49:57.638Z,19.50
2018-12-14T05:51:00.751Z,15.00
2018-12-14T05:52:04.208Z,16.00
2018-12-14T05:53:06.970Z,16.00
2018-12-14T05:54:09.739Z,14.00
2018-12-14T05:55:13.328Z,16.00
2018-12-14T05:56:16.159Z,17.50
2018-12-14T05:57:19.468Z,12.50
2018-12-14T05:58:22.388Z,16.00
2018-12-14T05:59:25.208Z,14.00
2018-12-14T06:00:28.828Z,12.00
2018-12-14T06:01:31.601Z,12.50
2018-12-14T06:02:34.433Z,14.00
2018-12-14T06:03:37.721Z,18.00
2018-12-14T06:04:42.446Z,13.50
2018-12-14T06:05:45.270Z,13.50
2018-12-14T06:06:48.233Z,16.50
2018-12-14T06:07:52.013Z,14.00
2018-12-14T06:08:55.461Z,14.00
2018-12-14T06:09:58.691Z,17.50
2018-12-14T06:11:01.469Z,20.00
2018-12-14T06:12:05.077Z,17.00
2018-12-14T06:13:09.286Z,17.00
2018-12-14T06:14:12.294Z,16.00
2018-12-14T06:15:15.652Z,15.50
2018-12-14T06:16:18.958Z,16.50
2018-12-14T06:17:21.777Z,17.00
2018-12-14T06:18:25.362Z,12.50
2018-12-14T06:19:35.472Z,16.00
2018-12-14T06:20:38.261Z,15.00
2018-12-14T06:21:41.055Z,15.00
2018-12-14T06:22:44.176Z,20.00
2018-12-14T06:23:47.022Z,15.00
2018-12-14T06:24:50.106Z,16.00
2018-12-14T06:25:52.913Z,16.00
2018-12-14T06:26:55.677Z,13.00
2018-12-14T06:27:58.507Z,16.50
2018-12-14T06:29:03.069Z,20.50
2018-12-14T06:45:05.009Z,22.50
2018-12-14T06:46:07.769Z,22.75
2018-12-14T06:47:10.537Z,19.75
2018-12-14T06:48:13.666Z,18.50
2018-12-14T06:49:16.468Z,19.00
2018-12-14T06:50:20.071Z,19.50
2018-12-14T06:51:22.800Z,20.00
2018-12-14T06:52:25.652Z,21.00
2018-12-14T06:53:29.356Z,18.00
2018-12-14T06:54:33.580Z,17.50
2018-12-14T06:55:36.410Z,21.00
2018-12-14T06:56:39.416Z,18.50
2018-12-14T06:57:42.226Z,19.50
2018-12-14T06:58:45.514Z,16.00
2018-12-14T06:59:48.279Z,15.50
2018-12-14T07:00:51.465Z,19.00
2018-12-14T07:01:54.326Z,22.00
2018-12-14T07:02:58.643Z,19.00
2018-12-14T07:04:04.801Z,19.50
2018-12-14T07:05:08.128Z,18.50
2018-12-14T07:06:11.444Z,16.00
2018-12-14T07:07:14.644Z,17.50
2018-12-14T07:08:17.502Z,15.00
2018-12-14T07:09:20.587Z,20.00
2018-12-14T07:10:23.378Z,14.50
2018-12-14T07:11:26.309Z,22.00
2018-12-14T07:12:29.435Z,16.00
2018-12-14T07:13:32.684Z,19.50
2018-12-14T07:14:35.513Z,15.50
2018-12-14T07:15:38.345Z,16.00
2018-12-14T07:16:41.239Z,18.00
2018-12-14T07:17:44.075Z,22.00
2018-12-14T07:18:47.992Z,15.50
2018-12-14T07:19:51.237Z,16.00
2018-12-14T07:20:53.991Z,12.50
2018-12-14T07:21:58.998Z,20.00
2018-12-14T07:23:01.882Z,15.00
2018-12-14T07:24:05.591Z,19.50
2018-12-14T07:25:08.438Z,20.00
2018-12-14T07:26:12.464Z,16.00
2018-12-14T07:27:15.915Z,19.50
2018-12-14T07:28:19.709Z,14.00
2018-12-14T07:29:22.530Z,15.00
2018-12-14T07:30:25.323Z,23.50
2018-12-14T07:31:28.578Z,21.00
2018-12-14T07:32:32.880Z,17.50
2018-12-14T07:33:36.542Z,22.00
2018-12-14T07:34:41.792Z,17.50
2018-12-14T07:35:46.341Z,16.00
2018-12-14T07:36:49.114Z,18.00
2018-12-14T07:37:52.580Z,19.50
2018-12-14T07:38:56.350Z,16.00
2018-12-14T07:39:59.220Z,19.00
2018-12-14T07:41:02.275Z,21.00
2018-12-14T07:42:06.087Z,13.00
2018-12-14T07:43:08.856Z,19.50
2018-12-14T07:44:12.055Z,20.00
2018-12-14T07:45:15.132Z,18.00
2018-12-14T07:46:20.535Z,16.00
2018-12-14T07:47:23.458Z,18.00
2018-12-14T07:48:26.345Z,16.00
2018-12-14T07:49:29.665Z,18.00
2018-12-14T07:50:34.611Z,18.00
2018-12-14T07:51:37.711Z,18.50
2018-12-14T07:52:42.623Z,15.50
2018-12-14T07:53:45.401Z,19.00
2018-12-14T07:54:48.237Z,18.00
2018-12-14T07:55:51.266Z,21.00
2018-12-14T07:56:55.696Z,15.50
2018-12-14T07:57:59.245Z,14.00
2018-12-14T07:59:02.856Z,12.50
2018-12-14T08:00:05.826Z,14.00
2018-12-14T08:01:08.708Z,13.50
2018-12-14T08:02:12.525Z,19.00
2018-12-14T08:03:18.786Z,14.00
2018-12-14T08:04:21.809Z,20.00
2018-12-14T08:05:24.606Z,15.50
2018-12-14T08:06:29.455Z,16.50
2018-12-14T08:07:32.313Z,16.50
2018-12-14T08:08:36.192Z,19.00
2018-12-14T08:09:40.348Z,12.50
2018-12-14T08:10:44.213Z,19.00
2018-12-14T08:11:49.293Z,14.50
2018-12-14T08:12:52.366Z,12.50
2018-12-14T08:13:56.750Z,13.00
2018-12-14T08:14:59.541Z,18.00
2018-12-14T08:16:02.868Z,14.50
2018-12-14T08:17:05.725Z,17.00
2018-12-14T08:18:08.576Z,13.50
2018-12-14T08:19:12.333Z,11.50
2018-12-14T08:20:17.288Z,12.00
2018-12-14T08:21:20.197Z,16.00
2018-12-14T08:22:23.353Z,13.50
2018-12-14T08:23:26.755Z,15.00
2018-12-14T08:24:29.626Z,14.00
2018-12-14T08:25:32.655Z,12.00
2018-12-14T08:26:39.885Z,14.50
2018-12-14T08:27:42.749Z,15.50
2018-12-14T08:28:46.141Z,12.50
2018-12-14T08:29:48.974Z,12.00
2018-12-14T08:30:51.849Z,16.00
2018-12-14T08:31:54.737Z,15.50
2018-12-14T08:32:57.534Z,10.00
2018-12-14T08:34:00.626Z,15.50
2018-12-14T08:35:03.445Z,15.50
2018-12-14T08:36:06.360Z,13.00
2018-12-14T08:37:09.166Z,17.50
2018-12-14T08:38:12.703Z,21.50
2018-12-14T08:39:17.182Z,12.00
2018-12-14T08:40:20.368Z,14.00
2018-12-14T08:41:23.224Z,12.50
2018-12-14T08:42:26.130Z,16.00
2018-12-14T08:43:30.597Z,14.00
2018-12-14T08:44:33.428Z,12.50
2018-12-14T08:45:36.229Z,14.00
2018-12-14T08:46:39.640Z,15.00
2018-12-14T08:47:42.472Z,12.00
2018-12-14T08:48:46.099Z,13.00
2018-12-14T08:49:48.953Z,18.00
2018-12-14T08:50:52.725Z,12.50
2018-12-14T08:51:56.490Z,15.00
2018-12-14T08:52:59.311Z,14.00
2018-12-14T08:54:02.227Z,16.50
2018-12-14T08:55:05.697Z,19.00
2018-12-14T08:56:08.528Z,14.00
2018-12-14T08:57:11.382Z,14.00
2018-12-14T08:58:14.463Z,15.00
2018-12-14T08:59:17.283Z,19.50
2018-12-14T09:00:20.093Z,14.00
2018-12-14T09:01:22.873Z,12.00
2018-12-14T09:02:25.719Z,15.50
2018-12-14T09:03:29.250Z,13.00
2018-12-14T09:04:32.510Z,15.00
2018-12-14T09:05:35.344Z,18.50
2018-12-14T09:06:38.151Z,16.00
2018-12-14T09:07:40.920Z,15.00
2018-12-14T09:08:44.454Z,15.50
2018-12-14T09:09:47.367Z,14.00
2018-12-14T09:10:56.243Z,12.00
2018-12-14T09:11:59.073Z,13.00
2018-12-14T09:13:01.911Z,16.00
2018-12-14T09:14:04.796Z,14.00
2018-12-14T09:15:07.640Z,14.00
2018-12-14T09:16:10.394Z,13.00
2018-12-14T09:17:13.547Z,15.00
2018-12-14T09:18:16.411Z,14.00
2018-12-14T09:19:20.178Z,14.00
2018-12-14T09:20:22.986Z,15.50
2018-12-14T09:21:25.834Z,12.50
2018-12-14T09:22:29.861Z,15.50
2018-12-14T09:23:34.042Z,14.00
2018-12-14T09:24:38.258Z,19.50
2018-12-14T09:25:41.296Z,14.50
2018-12-14T09:26:44.188Z,16.00
2018-12-14T09:27:47.593Z,16.00
2018-12-14T09:28:51.423Z,14.00
2018-12-14T09:29:55.347Z,19.00
2018-12-14T09:30:58.213Z,17.50
2018-12-14T09:32:01.086Z,19.00
2018-12-14T09:33:04.072Z,16.50
2018-12-14T09:34:07.423Z,18.00
2018-12-14T09:35:10.326Z,23.00
2018-12-14T09:36:13.477Z,14.00
2018-12-14T09:37:16.299Z,15.50
2018-12-14T09:38:19.372Z,18.00
2018-12-14T09:39:22.405Z,18.00
2018-12-14T09:40:27.701Z,14.00
2018-12-14T09:41:31.501Z,14.00
2018-12-14T09:42:35.611Z,17.50
2018-12-14T09:43:38.634Z,18.00
2018-12-14T09:44:41.458Z,19.50
2018-12-14T09:45:47.949Z,18.00
2018-12-14T09:46:50.871Z,17.00
2018-12-14T09:47:53.748Z,14.00
2018-12-14T09:48:56.962Z,15.50
2018-12-14T09:50:01.895Z,17.00
2018-12-14T09:51:12.183Z,20.50
2018-12-14T09:52:10.471Z,17.00
2018-12-14T09:53:16.560Z,19.50
2018-12-14T09:54:21.455Z,18.00
2018-12-14T09:55:25.396Z,14.00
2018-12-14T09:56:29.374Z,15.00
2018-12-14T09:57:34.910Z,13.50
2018-12-14T09:58:37.826Z,16.00
2018-12-14T09:59:40.649Z,11.50
2018-12-14T10:00:43.454Z,17.00
2018-12-14T10:01:46.248Z,14.50
2018-12-14T10:02:49.046Z,14.50
2018-12-14T10:03:52.150Z,16.00
2018-12-14T10:06:42.146Z,17.00
2018-12-14T10:07:46.959Z,16.00
2018-12-14T10:08:53.234Z,14.50
2018-12-14T10:09:56.042Z,13.50
2018-12-14T10:10:59.042Z,22.00
2018-12-14T10:12:01.840Z,15.00
2018-12-14T10:13:08.997Z,14.00
2018-12-14T10:14:12.716Z,17.50
2018-12-14T10:15:15.743Z,14.00
2018-12-14T10:16:19.504Z,14.00
2018-12-14T10:17:23.064Z,12.50
2018-12-14T10:18:26.602Z,16.00
2018-12-14T10:19:29.848Z,16.50
2018-12-14T10:20:32.801Z,19.00
2018-12-14T10:21:35.611Z,14.00
2018-12-14T10:22:41.550Z,15.00
2018-12-14T10:23:44.722Z,14.50
2018-12-14T10:24:47.956Z,17.00
2018-12-14T10:25:51.257Z,13.50
2018-12-14T10:26:54.968Z,16.00
2018-12-14T10:27:58.021Z,14.50
2018-12-14T10:29:01.092Z,13.50
2018-12-14T10:30:04.139Z,16.00
2018-12-14T10:31:07.724Z,18.00
2018-12-14T10:32:11.185Z,14.00
2018-12-14T10:33:15.044Z,17.00
2018-12-14T10:34:18.301Z,13.00
2018-12-14T10:35:25.718Z,14.50
2018-12-14T10:36:29.864Z,16.00
2018-12-14T10:37:33.495Z,18.50
2018-12-14T10:38:38.832Z,17.00
2018-12-14T10:39:43.133Z,18.00
2018-12-14T10:40:46.437Z,13.00
2018-12-14T10:41:49.406Z,19.00
2018-12-14T10:42:53.669Z,12.00
2018-12-14T10:43:56.959Z,17.50
2018-12-14T10:45:04.903Z,14.50
2018-12-14T10:46:07.799Z,15.50
2018-12-14T10:47:11.609Z,16.00
2018-12-14T10:48:15.958Z,15.50
2018-12-14T10:49:19.506Z,15.50
2018-12-14T10:50:22.884Z,17.00
2018-12-14T10:51:26.734Z,16.50
2018-12-14T10:52:29.913Z,20.00
2018-12-14T10:53:32.803Z,18.50
2018-12-14T10:54:36.017Z,11.50
2018-12-14T10:55:39.116Z,18.00
2018-12-14T10:56:42.084Z,17.00
2018-12-14T10:57:46.650Z,14.50
2018-12-14T10:58:49.589Z,14.00
2018-12-14T10:59:53.213Z,14.00
2018-12-14T11:01:00.909Z,20.00
2018-12-14T11:02:03.912Z,20.00
2018-12-14T11:03:06.794Z,19.50
2018-12-14T11:04:10.185Z,17.00
2018-12-14T11:05:13.144Z,22.00
2018-12-14T11:06:16.715Z,21.00
2018-12-14T11:07:19.685Z,18.00
2018-12-14T11:08:22.715Z,16.00
2018-12-14T11:09:25.756Z,16.50
2018-12-14T11:14:39.028Z,15.50
2018-12-14T11:15:43.564Z,23.50
2018-12-14T11:16:46.559Z,17.50
2018-12-14T11:17:50.598Z,16.00
2018-12-14T11:18:54.672Z,16.00
2018-12-14T11:19:58.185Z,20.00
2018-12-14T11:21:01.132Z,20.50
2018-12-14T11:22:05.908Z,19.50
2018-12-14T11:23:09.624Z,19.50
2018-12-14T11:24:12.617Z,22.50
2018-12-14T11:25:15.422Z,24.00
2018-12-14T11:26:18.518Z,14.50
2018-12-14T11:27:21.476Z,14.00
2018-12-14T11:28:25.760Z,12.50
2018-12-14T11:29:28.665Z,16.00
2018-12-14T11:42:53.263Z,20.00
2018-12-14T11:45:10.241Z,26.50
2018-12-14T11:46:14.629Z,19.50
2018-12-14T11:47:18.784Z,20.25
2018-12-14T11:48:21.594Z,18.50
2018-12-14T11:49:24.524Z,18.00
2018-12-14T11:50:29.369Z,19.50
2018-12-14T11:51:33.495Z,18.50
2018-12-14T11:52:36.426Z,18.00
2018-12-14T11:53:40.583Z,21.00
2018-12-14T11:54:43.670Z,18.00
2018-12-14T11:55:46.595Z,20.00
2018-12-14T11:56:49.602Z,16.50
2018-12-14T11:57:52.566Z,15.00
2018-12-14T11:58:55.450Z,14.00
2018-12-14T11:59:58.565Z,18.00
2018-12-14T12:01:01.450Z,17.50
2018-12-14T12:02:04.406Z,19.50
2018-12-14T12:03:07.562Z,19.50
2018-12-14T12:04:11.130Z,17.50
2018-12-14T12:05:14.512Z,16.00
2018-12-14T12:06:18.759Z,15.50
2018-12-14T12:07:23.712Z,16.50
2018-12-14T12:08:27.648Z,16.00
2018-12-14T12:09:31.532Z,18.50
2018-12-14T12:10:37.341Z,20.00
2018-12-14T12:11:40.140Z,14.00
2018-12-14T12:12:45.861Z,16.00
2018-12-14T12:13:48.699Z,16.50
2018-12-14T12:14:51.541Z,16.00
2018-12-14T12:15:55.397Z,20.50
2018-12-14T12:16:58.496Z,18.00
2018-12-14T12:18:01.689Z,17.50
2018-12-14T12:19:09.027Z,23.00
2018-12-14T12:20:13.329Z,20.00
2018-12-14T12:21:16.446Z,18.00
2018-12-14T12:22:19.290Z,12.00
2018-12-14T12:23:23.766Z,14.00
2018-12-14T12:24:27.125Z,16.00
2018-12-14T12:25:32.480Z,14.50
2018-12-14T12:26:37.127Z,14.00
2018-12-14T12:27:41.939Z,15.50
2018-12-14T12:28:45.533Z,19.00
2018-12-14T12:29:51.705Z,16.00
2018-12-14T12:30:55.807Z,13.50
2018-12-14T12:31:59.718Z,14.50
2018-12-14T12:33:02.539Z,15.50
2018-12-14T12:34:07.343Z,14.50
2018-12-14T12:35:10.289Z,16.00
2018-12-14T12:36:13.100Z,17.00
2018-12-14T12:37:16.856Z,16.50
2018-12-14T12:38:20.644Z,14.50
2018-12-14T12:39:25.794Z,29.00
2018-12-14T12:40:29.714Z,15.50
2018-12-14T12:41:35.774Z,16.00
2018-12-14T12:42:39.808Z,16.50
2018-12-14T12:43:44.406Z,12.00
2018-12-14T12:44:47.416Z,17.00
2018-12-14T12:45:52.200Z,15.00
2018-12-14T12:46:56.619Z,14.00
2018-12-14T12:48:03.945Z,18.50
2018-12-14T12:49:06.932Z,20.00
2018-12-14T12:50:10.655Z,17.00
2018-12-14T12:51:14.991Z,13.00
2018-12-14T12:52:18.148Z,14.00
2018-12-14T12:53:21.157Z,12.00
2018-12-14T12:54:24.036Z,14.00
2018-12-14T12:55:28.473Z,13.50
2018-12-14T12:56:32.355Z,20.00
2018-12-14T12:57:35.290Z,20.50
2018-12-14T12:58:39.450Z,18.00
2018-12-14T12:59:42.759Z,15.00
2018-12-14T13:00:45.755Z,19.50
2018-12-14T13:01:49.891Z,15.00
2018-12-14T13:02:52.727Z,16.00
2018-12-14T13:03:57.740Z,12.00
2018-12-14T13:05:02.249Z,12.00
2018-12-14T13:06:05.235Z,14.50
2018-12-14T13:07:08.864Z,14.00
2018-12-14T13:08:12.477Z,14.00
2018-12-14T13:09:15.351Z,16.00
2018-12-14T13:10:18.517Z,12.50
2018-12-14T13:11:21.355Z,13.00
2018-12-14T13:12:27.191Z,16.00
2018-12-14T13:13:30.703Z,13.00
2018-12-14T13:14:39.860Z,14.00
2018-12-14T13:15:39.342Z,14.50
2018-12-14T13:16:45.944Z,13.50
2018-12-14T13:17:48.831Z,12.50
2018-12-14T13:18:52.893Z,14.00
2018-12-14T13:19:56.143Z,12.00
2018-12-14T13:20:58.981Z,20.50
2018-12-14T13:22:01.785Z,11.00
2018-12-14T13:23:05.790Z,16.50
2018-12-14T13:24:08.768Z,14.00
2018-12-14T13:25:12.597Z,18.00
2018-12-14T13:26:17.261Z,12.50
2018-12-14T13:27:20.773Z,12.50
2018-12-14T13:28:23.803Z,12.00
2018-12-14T13:29:27.371Z,13.50
2018-12-14T13:30:30.176Z,15.00
2018-12-14T13:31:33.092Z,15.50
2018-12-14T13:32:36.504Z,13.00
2018-12-14T13:33:39.356Z,15.00
2018-12-14T13:34:42.909Z,14.00
2018-12-14T13:35:45.759Z,18.00
2018-12-14T13:36:49.030Z,17.50
2018-12-14T13:37:52.123Z,16.00
2018-12-14T13:38:54.928Z,18.00
2018-12-14T13:39:57.907Z,17.00
2018-12-14T13:41:01.593Z,17.00
2018-12-14T13:42:04.449Z,16.00
2018-12-14T13:43:07.309Z,16.50
2018-12-14T13:44:10.471Z,14.00
2018-12-14T13:45:14.469Z,14.00
2018-12-14T13:46:17.428Z,16.50
2018-12-14T13:47:20.286Z,15.00
2018-12-14T13:48:23.825Z,17.50
2018-12-14T13:49:27.830Z,14.00
2018-12-14T13:50:31.534Z,15.50
2018-12-14T13:51:34.668Z,19.50
2018-12-14T13:52:37.515Z,17.00
2018-12-14T13:53:41.330Z,16.00
2018-12-14T13:54:45.814Z,18.50
2018-12-14T13:55:50.179Z,15.50
2018-12-14T13:56:53.564Z,18.00
2018-12-14T13:57:58.418Z,17.50
2018-12-14T13:59:01.642Z,18.00
2018-12-14T14:00:07.854Z,17.50
2018-12-14T14:01:12.479Z,14.00
2018-12-14T14:02:18.190Z,18.00
2018-12-14T14:03:21.718Z,14.50
2018-12-14T14:04:24.526Z,19.00
2018-12-14T14:05:27.375Z,15.00
2018-12-14T14:06:30.203Z,14.00
2018-12-14T14:07:34.402Z,13.00
2018-12-14T14:08:37.282Z,18.50
2018-12-14T14:09:42.367Z,16.00
2018-12-14T14:10:45.175Z,17.50
2018-12-14T14:11:47.974Z,20.00
2018-12-14T14:12:50.788Z,16.00
2018-12-14T14:13:53.868Z,20.00
2018-12-14T14:14:57.284Z,17.50
2018-12-14T14:16:00.192Z,22.00